Terminal Aerodrome Forecast
Issued by NWS Spokane, WA

Home | Current Version | Previous Version | Text Only | Print | Product List | Glossary On
Versions: 1 2 3 4 5 6 7 8 9 10 11 12 13 14 15 16 17 18 19 20 21 22 23 24 25 26 27 28 29 30
000
FTUS46 KOTX 220538
TAFLWS
TAF
KLWS 220538Z 2206/2306 10008KT P6SM VCSH SCT060 BKN150
     FM220700 08006KT P6SM SCT080 BKN150
     FM221400 10010KT P6SM SCT100
     FM222000 09005KT P6SM -RA OVC060=

USA.gov is the U.S. government's official web portal to all federal, state and local government web resources and services.